sensor_id;sensor_type;location;lat;lon;timestamp;temperature;humidity
65598;SHT31;52267;51.984;20.956;2022-11-14T00:00:50;8.10;91.19
65598;SHT31;52267;51.984;20.956;2022-11-14T00:03:17;8.10;91.20
65598;SHT31;52267;51.984;20.956;2022-11-14T00:05:45;8.09;91.17
65598;SHT31;52267;51.984;20.956;2022-11-14T00:08:17;8.06;91.22
65598;SHT31;52267;51.984;20.956;2022-11-14T00:10:50;8.07;91.28
65598;SHT31;52267;51.984;20.956;2022-11-14T00:13:18;8.08;91.24
65598;SHT31;52267;51.984;20.956;2022-11-14T00:15:50;8.09;91.21
65598;SHT31;52267;51.984;20.956;2022-11-14T00:18:27;8.09;91.26
65598;SHT31;52267;51.984;20.956;2022-11-14T00:20:54;8.08;91.30
65598;SHT31;52267;51.984;20.956;2022-11-14T00:23:21;8.08;91.30
65598;SHT31;52267;51.984;20.956;2022-11-14T00:25:48;8.08;91.32
65598;SHT31;52267;51.984;20.956;2022-11-14T00:28:15;8.09;91.38
65598;SHT31;52267;51.984;20.956;2022-11-14T00:30:46;8.08;91.30
65598;SHT31;52267;51.984;20.956;2022-11-14T00:33:14;8.08;91.38
65598;SHT31;52267;51.984;20.956;2022-11-14T00:35:48;8.08;91.39
65598;SHT31;52267;51.984;20.956;2022-11-14T00:38:20;8.09;91.40
65598;SHT31;52267;51.984;20.956;2022-11-14T00:40:47;8.09;91.38
65598;SHT31;52267;51.984;20.956;2022-11-14T00:43:15;8.08;91.39
65598;SHT31;52267;51.984;20.956;2022-11-14T00:45:45;8.10;91.42
65598;SHT31;52267;51.984;20.956;2022-11-14T00:48:13;8.10;91.41
65598;SHT31;52267;51.984;20.956;2022-11-14T00:50:41;8.10;91.33
65598;SHT31;52267;51.984;20.956;2022-11-14T00:53:09;8.09;91.31
65598;SHT31;52267;51.984;20.956;2022-11-14T00:55:36;8.09;91.33
65598;SHT31;52267;51.984;20.956;2022-11-14T00:58:04;8.08;91.37
65598;SHT31;52267;51.984;20.956;2022-11-14T01:00:31;8.08;91.41
65598;SHT31;52267;51.984;20.956;2022-11-14T01:02:59;8.07;91.46
65598;SHT31;52267;51.984;20.956;2022-11-14T01:05:26;8.05;91.51
65598;SHT31;52267;51.984;20.956;2022-11-14T01:07:53;8.04;91.52
65598;SHT31;52267;51.984;20.956;2022-11-14T01:10:20;8.04;91.54
65598;SHT31;52267;51.984;20.956;2022-11-14T01:12:48;8.01;91.72
65598;SHT31;52267;51.984;20.956;2022-11-14T01:15:15;7.97;91.90
65598;SHT31;52267;51.984;20.956;2022-11-14T01:17:42;7.97;91.79
65598;SHT31;52267;51.984;20.956;2022-11-14T01:20:09;7.98;91.79
65598;SHT31;52267;51.984;20.956;2022-11-14T01:22:39;7.97;91.71
65598;SHT31;52267;51.984;20.956;2022-11-14T01:25:06;7.96;91.76
65598;SHT31;52267;51.984;20.956;2022-11-14T01:27:34;7.92;91.92
65598;SHT31;52267;51.984;20.956;2022-11-14T01:30:01;7.91;91.85
65598;SHT31;52267;51.984;20.956;2022-11-14T01:32:28;7.92;91.80
65598;SHT31;52267;51.984;20.956;2022-11-14T01:34:55;7.92;91.72
65598;SHT31;52267;51.984;20.956;2022-11-14T01:37:22;7.90;91.74
65598;SHT31;52267;51.984;20.956;2022-11-14T01:39:49;7.89;91.78
65598;SHT31;52267;51.984;20.956;2022-11-14T01:42:16;7.89;91.74
65598;SHT31;52267;51.984;20.956;2022-11-14T01:44:45;7.88;91.72
65598;SHT31;52267;51.984;20.956;2022-11-14T01:47:22;7.86;91.81
65598;SHT31;52267;51.984;20.956;2022-11-14T01:49:53;7.82;92.08
65598;SHT31;52267;51.984;20.956;2022-11-14T01:52:26;7.81;92.00
65598;SHT31;52267;51.984;20.956;2022-11-14T01:54:58;7.82;91.85
65598;SHT31;52267;51.984;20.956;2022-11-14T01:57:38;7.76;92.10
65598;SHT31;52267;51.984;20.956;2022-11-14T02:00:10;7.75;92.19
65598;SHT31;52267;51.984;20.956;2022-11-14T02:02:38;7.76;91.98
65598;SHT31;52267;51.984;20.956;2022-11-14T02:05:08;7.75;91.91
65598;SHT31;52267;51.984;20.956;2022-11-14T02:07:39;7.74;92.09
65598;SHT31;52267;51.984;20.956;2022-11-14T02:10:08;7.75;92.05
65598;SHT31;52267;51.984;20.956;2022-11-14T02:12:42;7.76;92.03
65598;SHT31;52267;51.984;20.956;2022-11-14T02:15:10;7.76;92.00
65598;SHT31;52267;51.984;20.956;2022-11-14T02:17:37;7.78;91.99
65598;SHT31;52267;51.984;20.956;2022-11-14T02:22:37;7.78;91.93
65598;SHT31;52267;51.984;20.956;2022-11-14T02:25:09;7.78;91.98
65598;SHT31;52267;51.984;20.956;2022-11-14T02:27:40;7.77;92.16
65598;SHT31;52267;51.984;20.956;2022-11-14T02:30:12;7.77;92.15
65598;SHT31;52267;51.984;20.956;2022-11-14T02:32:43;7.77;92.07
65598;SHT31;52267;51.984;20.956;2022-11-14T02:35:11;7.78;91.95
65598;SHT31;52267;51.984;20.956;2022-11-14T02:37:38;7.78;91.92
65598;SHT31;52267;51.984;20.956;2022-11-14T02:40:05;7.76;92.01
65598;SHT31;52267;51.984;20.956;2022-11-14T02:42:33;7.76;92.10
65598;SHT31;52267;51.984;20.956;2022-11-14T02:45:00;7.74;92.15
65598;SHT31;52267;51.984;20.956;2022-11-14T02:47:27;7.74;92.25
65598;SHT31;52267;51.984;20.956;2022-11-14T02:49:54;7.72;92.24
65598;SHT31;52267;51.984;20.956;2022-11-14T02:52:21;7.71;92.38
65598;SHT31;52267;51.984;20.956;2022-11-14T02:54:48;7.67;92.38
65598;SHT31;52267;51.984;20.956;2022-11-14T02:57:15;7.64;92.41
65598;SHT31;52267;51.984;20.956;2022-11-14T02:59:42;7.61;92.66
65598;SHT31;52267;51.984;20.956;2022-11-14T03:02:09;7.58;92.69
65598;SHT31;52267;51.984;20.956;2022-11-14T03:04:37;7.60;92.58
65598;SHT31;52267;51.984;20.956;2022-11-14T03:07:03;7.59;92.64
65598;SHT31;52267;51.984;20.956;2022-11-14T03:09:31;7.59;92.70
65598;SHT31;52267;51.984;20.956;2022-11-14T03:11:57;7.60;92.41
65598;SHT31;52267;51.984;20.956;2022-11-14T03:14:24;7.60;92.41
65598;SHT31;52267;51.984;20.956;2022-11-14T03:16:53;7.59;92.42
65598;SHT31;52267;51.984;20.956;2022-11-14T03:19:20;7.59;92.43
65598;SHT31;52267;51.984;20.956;2022-11-14T03:21:47;7.61;92.43
65598;SHT31;52267;51.984;20.956;2022-11-14T03:24:14;7.61;92.40
65598;SHT31;52267;51.984;20.956;2022-11-14T03:26:41;7.61;92.36
65598;SHT31;52267;51.984;20.956;2022-11-14T03:29:08;7.61;92.27
65598;SHT31;52267;51.984;20.956;2022-11-14T03:31:35;7.62;92.29
65598;SHT31;52267;51.984;20.956;2022-11-14T03:34:02;7.62;92.20
65598;SHT31;52267;51.984;20.956;2022-11-14T03:36:29;7.61;92.23
65598;SHT31;52267;51.984;20.956;2022-11-14T03:38:56;7.59;92.36
65598;SHT31;52267;51.984;20.956;2022-11-14T03:41:23;7.61;92.28
65598;SHT31;52267;51.984;20.956;2022-11-14T03:43:50;7.61;92.32
65598;SHT31;52267;51.984;20.956;2022-11-14T03:46:17;7.60;92.35
65598;SHT31;52267;51.984;20.956;2022-11-14T03:48:44;7.59;92.33
65598;SHT31;52267;51.984;20.956;2022-11-14T03:51:12;7.58;92.35
65598;SHT31;52267;51.984;20.956;2022-11-14T03:53:39;7.60;92.30
65598;SHT31;52267;51.984;20.956;2022-11-14T03:56:06;7.61;92.30
65598;SHT31;52267;51.984;20.956;2022-11-14T03:58:33;7.62;92.27
65598;SHT31;52267;51.984;20.956;2022-11-14T04:01:00;7.61;92.22
65598;SHT31;52267;51.984;20.956;2022-11-14T04:03:28;7.59;92.20
65598;SHT31;52267;51.984;20.956;2022-11-14T04:05:55;7.59;92.20
65598;SHT31;52267;51.984;20.956;2022-11-14T04:08:22;7.61;92.22
65598;SHT31;52267;51.984;20.956;2022-11-14T04:10:49;7.61;92.20
65598;SHT31;52267;51.984;20.956;2022-11-14T04:13:16;7.61;92.20
65598;SHT31;52267;51.984;20.956;2022-11-14T04:15:43;7.61;92.23
65598;SHT31;52267;51.984;20.956;2022-11-14T04:18:10;7.59;92.24
65598;SHT31;52267;51.984;20.956;2022-11-14T04:20:37;7.58;92.26
65598;SHT31;52267;51.984;20.956;2022-11-14T04:23:04;7.59;92.29
65598;SHT31;52267;51.984;20.956;2022-11-14T04:25:31;7.57;92.35
65598;SHT31;52267;51.984;20.956;2022-11-14T04:27:58;7.54;92.55
65598;SHT31;52267;51.984;20.956;2022-11-14T04:30:25;7.53;92.46
65598;SHT31;52267;51.984;20.956;2022-11-14T04:32:52;7.53;92.53
65598;SHT31;52267;51.984;20.956;2022-11-14T04:35:19;7.53;92.52
65598;SHT31;52267;51.984;20.956;2022-11-14T04:37:46;7.54;92.39
65598;SHT31;52267;51.984;20.956;2022-11-14T04:40:13;7.54;92.37
65598;SHT31;52267;51.984;20.956;2022-11-14T04:42:40;7.54;92.38
65598;SHT31;52267;51.984;20.956;2022-11-14T04:45:07;7.55;92.37
65598;SHT31;52267;51.984;20.956;2022-11-14T04:47:35;7.56;92.34
65598;SHT31;52267;51.984;20.956;2022-11-14T04:50:02;7.55;92.34
65598;SHT31;52267;51.984;20.956;2022-11-14T04:52:30;7.55;92.32
65598;SHT31;52267;51.984;20.956;2022-11-14T04:54:57;7.55;92.37
65598;SHT31;52267;51.984;20.956;2022-11-14T04:57:24;7.56;92.30
65598;SHT31;52267;51.984;20.956;2022-11-14T04:59:51;7.53;92.38
65598;SHT31;52267;51.984;20.956;2022-11-14T05:02:18;7.55;92.34
65598;SHT31;52267;51.984;20.956;2022-11-14T05:04:45;7.56;92.33
65598;SHT31;52267;51.984;20.956;2022-11-14T05:07:13;7.56;92.36
65598;SHT31;52267;51.984;20.956;2022-11-14T05:09:40;7.57;92.36
65598;SHT31;52267;51.984;20.956;2022-11-14T05:12:07;7.58;92.34
65598;SHT31;52267;51.984;20.956;2022-11-14T05:14:35;7.59;92.33
65598;SHT31;52267;51.984;20.956;2022-11-14T05:17:01;7.59;92.36
65598;SHT31;52267;51.984;20.956;2022-11-14T05:19:28;7.59;92.34
65598;SHT31;52267;51.984;20.956;2022-11-14T05:21:55;7.60;92.33
65598;SHT31;52267;51.984;20.956;2022-11-14T05:24:22;7.63;92.30
65598;SHT31;52267;51.984;20.956;2022-11-14T05:26:50;7.62;92.30
65598;SHT31;52267;51.984;20.956;2022-11-14T05:29:17;7.61;92.31
65598;SHT31;52267;51.984;20.956;2022-11-14T05:31:44;7.63;92.28
65598;SHT31;52267;51.984;20.956;2022-11-14T05:34:11;7.62;92.39
65598;SHT31;52267;51.984;20.956;2022-11-14T05:36:37;7.64;92.32
65598;SHT31;52267;51.984;20.956;2022-11-14T05:39:04;7.65;92.31
65598;SHT31;52267;51.984;20.956;2022-11-14T05:41:32;7.63;92.30
65598;SHT31;52267;51.984;20.956;2022-11-14T05:43:59;7.61;92.33
65598;SHT31;52267;51.984;20.956;2022-11-14T05:46:25;7.59;92.30
65598;SHT31;52267;51.984;20.956;2022-11-14T05:48:52;7.58;92.28
65598;SHT31;52267;51.984;20.956;2022-11-14T05:51:19;7.57;92.25
65598;SHT31;52267;51.984;20.956;2022-11-14T05:53:46;7.55;92.29
65598;SHT31;52267;51.984;20.956;2022-11-14T05:56:14;7.55;92.26
65598;SHT31;52267;51.984;20.956;2022-11-14T05:58:41;7.55;92.22
65598;SHT31;52267;51.984;20.956;2022-11-14T06:01:12;7.57;92.10
65598;SHT31;52267;51.984;20.956;2022-11-14T06:03:42;7.53;92.12
65598;SHT31;52267;51.984;20.956;2022-11-14T06:06:13;7.50;92.03
65598;SHT31;52267;51.984;20.956;2022-11-14T06:08:46;7.45;92.02
65598;SHT31;52267;51.984;20.956;2022-11-14T06:11:15;7.41;92.02
65598;SHT31;52267;51.984;20.956;2022-11-14T06:13:45;7.40;91.98
65598;SHT31;52267;51.984;20.956;2022-11-14T06:16:14;7.39;91.99
65598;SHT31;52267;51.984;20.956;2022-11-14T06:18:44;7.40;91.90
65598;SHT31;52267;51.984;20.956;2022-11-14T06:21:16;7.40;91.92
65598;SHT31;52267;51.984;20.956;2022-11-14T06:23:45;7.40;91.82
65598;SHT31;52267;51.984;20.956;2022-11-14T06:26:33;7.40;91.86
65598;SHT31;52267;51.984;20.956;2022-11-14T06:29:00;7.42;91.90
65598;SHT31;52267;51.984;20.956;2022-11-14T06:31:27;7.43;91.90
65598;SHT31;52267;51.984;20.956;2022-11-14T06:33:54;7.45;91.94
65598;SHT31;52267;51.984;20.956;2022-11-14T06:36:22;7.44;91.92
65598;SHT31;52267;51.984;20.956;2022-11-14T06:38:49;7.44;91.86
65598;SHT31;52267;51.984;20.956;2022-11-14T06:41:17;7.45;91.88
65598;SHT31;52267;51.984;20.956;2022-11-14T06:43:51;7.45;91.88
65598;SHT31;52267;51.984;20.956;2022-11-14T06:46:19;7.45;91.81
65598;SHT31;52267;51.984;20.956;2022-11-14T06:48:48;7.46;91.79
65598;SHT31;52267;51.984;20.956;2022-11-14T06:51:18;7.46;91.84
65598;SHT31;52267;51.984;20.956;2022-11-14T06:53:45;7.47;91.85
65598;SHT31;52267;51.984;20.956;2022-11-14T06:56:13;7.45;91.75
65598;SHT31;52267;51.984;20.956;2022-11-14T06:58:46;7.46;91.59
65598;SHT31;52267;51.984;20.956;2022-11-14T07:01:16;7.50;91.58
65598;SHT31;52267;51.984;20.956;2022-11-14T07:03:45;7.50;91.53
65598;SHT31;52267;51.984;20.956;2022-11-14T07:06:14;7.50;91.50
65598;SHT31;52267;51.984;20.956;2022-11-14T07:08:46;7.51;91.50
65598;SHT31;52267;51.984;20.956;2022-11-14T07:11:17;7.50;91.54
65598;SHT31;52267;51.984;20.956;2022-11-14T07:13:51;7.49;91.55
65598;SHT31;52267;51.984;20.956;2022-11-14T07:16:22;7.49;91.60
65598;SHT31;52267;51.984;20.956;2022-11-14T07:18:55;7.48;91.55
65598;SHT31;52267;51.984;20.956;2022-11-14T07:21:24;7.47;91.55
65598;SHT31;52267;51.984;20.956;2022-11-14T07:23:52;7.43;91.40
65598;SHT31;52267;51.984;20.956;2022-11-14T07:26:20;7.46;91.40
65598;SHT31;52267;51.984;20.956;2022-11-14T07:28:47;7.50;91.38
65598;SHT31;52267;51.984;20.956;2022-11-14T07:31:15;7.53;91.33
65598;SHT31;52267;51.984;20.956;2022-11-14T07:33:44;7.55;91.34
65598;SHT31;52267;51.984;20.956;2022-11-14T07:36:12;7.58;91.32
65598;SHT31;52267;51.984;20.956;2022-11-14T07:38:40;7.57;91.20
65598;SHT31;52267;51.984;20.956;2022-11-14T07:41:08;7.57;91.17
65598;SHT31;52267;51.984;20.956;2022-11-14T07:43:39;7.59;91.14
65598;SHT31;52267;51.984;20.956;2022-11-14T07:46:09;7.59;91.11
65598;SHT31;52267;51.984;20.956;2022-11-14T07:48:41;7.60;91.09
65598;SHT31;52267;51.984;20.956;2022-11-14T07:51:12;7.55;90.38
65598;SHT31;52267;51.984;20.956;2022-11-14T07:53:42;7.61;90.53
65598;SHT31;52267;51.984;20.956;2022-11-14T07:56:10;7.62;90.55
65598;SHT31;52267;51.984;20.956;2022-11-14T07:58:39;7.63;90.47
65598;SHT31;52267;51.984;20.956;2022-11-14T08:01:08;7.64;90.39
65598;SHT31;52267;51.984;20.956;2022-11-14T08:03:37;7.67;90.39
65598;SHT31;52267;51.984;20.956;2022-11-14T08:06:06;7.70;90.42
65598;SHT31;52267;51.984;20.956;2022-11-14T08:08:38;7.72;90.40
65598;SHT31;52267;51.984;20.956;2022-11-14T08:11:05;7.72;90.25
65598;SHT31;52267;51.984;20.956;2022-11-14T08:13:32;7.69;90.27
65598;SHT31;52267;51.984;20.956;2022-11-14T08:16:06;7.68;90.28
65598;SHT31;52267;51.984;20.956;2022-11-14T08:18:36;7.70;90.27
65598;SHT31;52267;51.984;20.956;2022-11-14T08:21:03;7.68;90.26
65598;SHT31;52267;51.984;20.956;2022-11-14T08:23:37;7.68;90.22
65598;SHT31;52267;51.984;20.956;2022-11-14T08:26:04;7.70;90.25
65598;SHT31;52267;51.984;20.956;2022-11-14T08:28:31;7.72;90.24
65598;SHT31;52267;51.984;20.956;2022-11-14T08:30:59;7.77;90.20
65598;SHT31;52267;51.984;20.956;2022-11-14T08:33:28;7.82;90.16
65598;SHT31;52267;51.984;20.956;2022-11-14T08:36:00;7.85;90.07
65598;SHT31;52267;51.984;20.956;2022-11-14T08:38:32;7.86;89.93
65598;SHT31;52267;51.984;20.956;2022-11-14T08:41:00;7.88;89.93
65598;SHT31;52267;51.984;20.956;2022-11-14T08:43:31;7.90;89.81
65598;SHT31;52267;51.984;20.956;2022-11-14T08:45:59;7.93;89.83
65598;SHT31;52267;51.984;20.956;2022-11-14T08:48:30;7.94;89.76
65598;SHT31;52267;51.984;20.956;2022-11-14T08:51:02;7.92;89.67
65598;SHT31;52267;51.984;20.956;2022-11-14T08:53:32;7.95;89.69
65598;SHT31;52267;51.984;20.956;2022-11-14T08:56:00;7.92;89.55
65598;SHT31;52267;51.984;20.956;2022-11-14T08:58:28;7.90;89.48
65598;SHT31;52267;51.984;20.956;2022-11-14T09:01:00;7.88;89.47
65598;SHT31;52267;51.984;20.956;2022-11-14T09:03:32;7.90;89.54
65598;SHT31;52267;51.984;20.956;2022-11-14T09:06:00;7.91;89.59
65598;SHT31;52267;51.984;20.956;2022-11-14T09:08:28;7.86;89.34
65598;SHT31;52267;51.984;20.956;2022-11-14T09:10:59;7.85;89.32
65598;SHT31;52267;51.984;20.956;2022-11-14T09:13:28;7.83;89.26
65598;SHT31;52267;51.984;20.956;2022-11-14T09:15:57;7.86;89.23
65598;SHT31;52267;51.984;20.956;2022-11-14T09:18:24;7.88;89.01
65598;SHT31;52267;51.984;20.956;2022-11-14T09:20:51;7.88;88.89
65598;SHT31;52267;51.984;20.956;2022-11-14T09:23:18;7.83;88.81
65598;SHT31;52267;51.984;20.956;2022-11-14T09:25:46;7.81;88.85
65598;SHT31;52267;51.984;20.956;2022-11-14T09:28:13;7.78;88.87
65598;SHT31;52267;51.984;20.956;2022-11-14T09:30:40;7.79;89.01
65598;SHT31;52267;51.984;20.956;2022-11-14T09:33:07;7.81;89.02
65598;SHT31;52267;51.984;20.956;2022-11-14T09:35:34;7.82;88.82
65598;SHT31;52267;51.984;20.956;2022-11-14T09:38:04;7.82;88.65
65598;SHT31;52267;51.984;20.956;2022-11-14T09:43:35;7.87;88.52
65598;SHT31;52267;51.984;20.956;2022-11-14T09:46:22;7.87;88.47
65598;SHT31;52267;51.984;20.956;2022-11-14T09:49:10;7.89;88.27
65598;SHT31;52267;51.984;20.956;2022-11-14T09:55:34;7.88;87.63
65598;SHT31;52267;51.984;20.956;2022-11-14T09:58:02;7.88;87.60
65598;SHT31;52267;51.984;20.956;2022-11-14T10:01:04;7.86;87.32
65598;SHT31;52267;51.984;20.956;2022-11-14T10:06:27;7.86;87.17
65598;SHT31;52267;51.984;20.956;2022-11-14T10:20:32;7.81;87.37
65598;SHT31;52267;51.984;20.956;2022-11-14T10:26:07;7.76;87.49
65598;SHT31;52267;51.984;20.956;2022-11-14T10:28:59;7.77;87.59
65598;SHT31;52267;51.984;20.956;2022-11-14T10:32:04;7.74;87.63
65598;SHT31;52267;51.984;20.956;2022-11-14T10:35:03;7.65;87.48
65598;SHT31;52267;51.984;20.956;2022-11-14T10:40:38;7.61;87.89
65598;SHT31;52267;51.984;20.956;2022-11-14T10:43:25;7.61;88.03
65598;SHT31;52267;51.984;20.956;2022-11-14T10:46:04;7.61;87.94
65598;SHT31;52267;51.984;20.956;2022-11-14T10:48:41;7.62;87.97
65598;SHT31;52267;51.984;20.956;2022-11-14T10:54:13;7.70;88.10
65598;SHT31;52267;51.984;20.956;2022-11-14T10:57:12;7.70;88.09
65598;SHT31;52267;51.984;20.956;2022-11-14T10:59:43;7.74;88.13
65598;SHT31;52267;51.984;20.956;2022-11-14T11:02:10;7.73;88.04
65598;SHT31;52267;51.984;20.956;2022-11-14T11:04:39;7.71;88.11
65598;SHT31;52267;51.984;20.956;2022-11-14T11:09:36;7.66;88.01
65598;SHT31;52267;51.984;20.956;2022-11-14T11:12:45;7.57;87.87
65598;SHT31;52267;51.984;20.956;2022-11-14T11:15:19;7.50;87.93
65598;SHT31;52267;51.984;20.956;2022-11-14T11:17:58;7.48;88.06
65598;SHT31;52267;51.984;20.956;2022-11-14T11:20:32;7.50;88.12
65598;SHT31;52267;51.984;20.956;2022-11-14T11:23:16;7.45;88.01
65598;SHT31;52267;51.984;20.956;2022-11-14T11:25:50;7.39;87.96
65598;SHT31;52267;51.984;20.956;2022-11-14T11:28:32;7.36;88.07
65598;SHT31;52267;51.984;20.956;2022-11-14T11:31:01;7.32;88.16
65598;SHT31;52267;51.984;20.956;2022-11-14T11:33:32;7.33;88.31
65598;SHT31;52267;51.984;20.956;2022-11-14T11:36:21;7.35;88.35
65598;SHT31;52267;51.984;20.956;2022-11-14T11:38:49;7.39;88.31
65598;SHT31;52267;51.984;20.956;2022-11-14T11:41:24;7.43;88.35
65598;SHT31;52267;51.984;20.956;2022-11-14T11:44:01;7.47;88.32
65598;SHT31;52267;51.984;20.956;2022-11-14T11:49:23;7.50;88.36
65598;SHT31;52267;51.984;20.956;2022-11-14T11:52:01;7.50;88.38
65598;SHT31;52267;51.984;20.956;2022-11-14T11:54:46;7.49;88.40
65598;SHT31;52267;51.984;20.956;2022-11-14T11:57:27;7.48;88.40
65598;SHT31;52267;51.984;20.956;2022-11-14T12:00:13;7.50;88.49
65598;SHT31;52267;51.984;20.956;2022-11-14T12:02:44;7.47;88.46
65598;SHT31;52267;51.984;20.956;2022-11-14T12:05:15;7.48;88.50
65598;SHT31;52267;51.984;20.956;2022-11-14T12:08:00;7.52;88.53
65598;SHT31;52267;51.984;20.956;2022-11-14T12:10:38;7.50;88.31
65598;SHT31;52267;51.984;20.956;2022-11-14T12:13:26;7.46;88.32
65598;SHT31;52267;51.984;20.956;2022-11-14T12:31:34;7.37;88.26
65598;SHT31;52267;51.984;20.956;2022-11-14T12:34:24;7.38;88.26
65598;SHT31;52267;51.984;20.956;2022-11-14T12:36:57;7.39;88.26
65598;SHT31;52267;51.984;20.956;2022-11-14T12:39:25;7.41;88.25
65598;SHT31;52267;51.984;20.956;2022-11-14T12:42:05;7.42;88.21
65598;SHT31;52267;51.984;20.956;2022-11-14T12:44:37;7.44;88.21
65598;SHT31;52267;51.984;20.956;2022-11-14T13:01:26;7.45;87.79
65598;SHT31;52267;51.984;20.956;2022-11-14T13:03:45;7.39;87.30
65598;SHT31;52267;51.984;20.956;2022-11-14T13:09:29;7.27;87.05
65598;SHT31;52267;51.984;20.956;2022-11-14T13:12:27;7.25;86.93
65598;SHT31;52267;51.984;20.956;2022-11-14T13:15:20;7.24;86.86
65598;SHT31;52267;51.984;20.956;2022-11-14T13:18:12;7.26;86.93
65598;SHT31;52267;51.984;20.956;2022-11-14T13:21:24;7.25;86.51
65598;SHT31;52267;51.984;20.956;2022-11-14T13:24:13;7.27;86.68
65598;SHT31;52267;51.984;20.956;2022-11-14T13:26:43;7.24;86.29
65598;SHT31;52267;51.984;20.956;2022-11-14T13:32:37;7.28;86.42
65598;SHT31;52267;51.984;20.956;2022-11-14T13:38:17;7.29;86.46
65598;SHT31;52267;51.984;20.956;2022-11-14T13:43:58;7.33;86.45
65598;SHT31;52267;51.984;20.956;2022-11-14T13:50:05;7.37;86.49
65598;SHT31;52267;51.984;20.956;2022-11-14T13:52:40;7.38;86.55
65598;SHT31;52267;51.984;20.956;2022-11-14T13:56:17;7.35;86.32
65598;SHT31;52267;51.984;20.956;2022-11-14T14:06:41;7.39;86.33
65598;SHT31;52267;51.984;20.956;2022-11-14T14:14:36;7.39;86.32
65598;SHT31;52267;51.984;20.956;2022-11-14T14:17:31;7.37;86.07
65598;SHT31;52267;51.984;20.956;2022-11-14T14:26:14;7.30;85.91
65598;SHT31;52267;51.984;20.956;2022-11-14T14:29:00;7.29;85.87
65598;SHT31;52267;51.984;20.956;2022-11-14T14:31:51;7.27;85.81
65598;SHT31;52267;51.984;20.956;2022-11-14T14:34:19;7.29;85.76
65598;SHT31;52267;51.984;20.956;2022-11-14T14:36:55;7.29;85.80
65598;SHT31;52267;51.984;20.956;2022-11-14T14:39:24;7.29;85.77
65598;SHT31;52267;51.984;20.956;2022-11-14T14:41:55;7.34;85.92
65598;SHT31;52267;51.984;20.956;2022-11-14T14:44:25;7.35;85.98
65598;SHT31;52267;51.984;20.956;2022-11-14T14:47:29;7.38;85.96
65598;SHT31;52267;51.984;20.956;2022-11-14T14:49:59;7.33;85.44
65598;SHT31;52267;51.984;20.956;2022-11-14T14:52:32;7.33;85.66
65598;SHT31;52267;51.984;20.956;2022-11-14T14:55:03;7.32;85.83
65598;SHT31;52267;51.984;20.956;2022-11-14T14:57:42;7.32;85.89
65598;SHT31;52267;51.984;20.956;2022-11-14T15:02:53;7.27;85.64
65598;SHT31;52267;51.984;20.956;2022-11-14T15:05:25;7.24;85.67
65598;SHT31;52267;51.984;20.956;2022-11-14T15:07:55;7.24;85.75
65598;SHT31;52267;51.984;20.956;2022-11-14T15:10:26;7.21;85.68
65598;SHT31;52267;51.984;20.956;2022-11-14T15:12:56;7.20;85.69
65598;SHT31;52267;51.984;20.956;2022-11-14T15:15:24;7.18;85.82
65598;SHT31;52267;51.984;20.956;2022-11-14T15:17:53;7.18;85.89
65598;SHT31;52267;51.984;20.956;2022-11-14T15:20:22;7.20;85.92
65598;SHT31;52267;51.984;20.956;2022-11-14T15:23:00;7.19;85.84
65598;SHT31;52267;51.984;20.956;2022-11-14T15:25:44;7.21;85.94
65598;SHT31;52267;51.984;20.956;2022-11-14T15:28:15;7.20;85.99
65598;SHT31;52267;51.984;20.956;2022-11-14T15:30:55;7.22;86.10
65598;SHT31;52267;51.984;20.956;2022-11-14T15:33:29;7.18;85.95
65598;SHT31;52267;51.984;20.956;2022-11-14T15:36:11;7.15;85.85
65598;SHT31;52267;51.984;20.956;2022-11-14T15:38:59;7.12;85.91
65598;SHT31;52267;51.984;20.956;2022-11-14T15:41:49;7.10;85.93
65598;SHT31;52267;51.984;20.956;2022-11-14T15:44:52;7.11;85.91
65598;SHT31;52267;51.984;20.956;2022-11-14T15:47:29;7.09;85.90
65598;SHT31;52267;51.984;20.956;2022-11-14T15:50:21;7.08;85.91
65598;SHT31;52267;51.984;20.956;2022-11-14T15:53:00;7.06;85.90
65598;SHT31;52267;51.984;20.956;2022-11-14T15:55:30;7.08;85.92
65598;SHT31;52267;51.984;20.956;2022-11-14T15:57:57;7.09;85.99
65598;SHT31;52267;51.984;20.956;2022-11-14T16:00:24;7.09;85.98
65598;SHT31;52267;51.984;20.956;2022-11-14T16:02:53;7.08;85.80
65598;SHT31;52267;51.984;20.956;2022-11-14T16:05:29;7.05;85.69
65598;SHT31;52267;51.984;20.956;2022-11-14T16:07:56;7.06;85.81
65598;SHT31;52267;51.984;20.956;2022-11-14T16:10:24;7.05;85.59
65598;SHT31;52267;51.984;20.956;2022-11-14T16:12:53;7.05;85.66
65598;SHT31;52267;51.984;20.956;2022-11-14T16:15:20;7.05;85.78
65598;SHT31;52267;51.984;20.956;2022-11-14T16:17:48;7.04;85.78
65598;SHT31;52267;51.984;20.956;2022-11-14T16:20:17;7.04;85.81
65598;SHT31;52267;51.984;20.956;2022-11-14T16:22:47;7.04;85.78
65598;SHT31;52267;51.984;20.956;2022-11-14T16:25:15;7.03;85.77
65598;SHT31;52267;51.984;20.956;2022-11-14T16:27:57;7.02;85.73
65598;SHT31;52267;51.984;20.956;2022-11-14T16:30:24;6.99;85.70
65598;SHT31;52267;51.984;20.956;2022-11-14T16:32:51;6.98;85.79
65598;SHT31;52267;51.984;20.956;2022-11-14T16:35:19;6.95;85.58
65598;SHT31;52267;51.984;20.956;2022-11-14T16:37:49;6.93;85.56
65598;SHT31;52267;51.984;20.956;2022-11-14T16:40:18;6.90;85.47
65598;SHT31;52267;51.984;20.956;2022-11-14T16:42:55;6.87;85.49
65598;SHT31;52267;51.984;20.956;2022-11-14T16:45:25;6.83;85.30
65598;SHT31;52267;51.984;20.956;2022-11-14T16:47:52;6.83;85.48
65598;SHT31;52267;51.984;20.956;2022-11-14T16:50:19;6.83;85.53
65598;SHT31;52267;51.984;20.956;2022-11-14T16:52:46;6.81;85.50
65598;SHT31;52267;51.984;20.956;2022-11-14T16:55:14;6.81;85.40
65598;SHT31;52267;51.984;20.956;2022-11-14T16:57:44;6.83;85.59
65598;SHT31;52267;51.984;20.956;2022-11-14T17:00:11;6.83;85.64
65598;SHT31;52267;51.984;20.956;2022-11-14T17:02:39;6.83;85.66
65598;SHT31;52267;51.984;20.956;2022-11-14T17:05:07;6.82;85.51
65598;SHT31;52267;51.984;20.956;2022-11-14T17:07:34;6.79;85.56
65598;SHT31;52267;51.984;20.956;2022-11-14T17:10:02;6.80;85.54
65598;SHT31;52267;51.984;20.956;2022-11-14T17:12:31;6.82;85.69
65598;SHT31;52267;51.984;20.956;2022-11-14T17:14:59;6.83;85.75
65598;SHT31;52267;51.984;20.956;2022-11-14T17:17:26;6.81;85.58
65598;SHT31;52267;51.984;20.956;2022-11-14T17:19:53;6.81;85.63
65598;SHT31;52267;51.984;20.956;2022-11-14T17:22:21;6.82;85.70
65598;SHT31;52267;51.984;20.956;2022-11-14T17:24:49;6.82;85.71
65598;SHT31;52267;51.984;20.956;2022-11-14T17:27:16;6.83;85.71
65598;SHT31;52267;51.984;20.956;2022-11-14T17:29:44;6.80;85.67
65598;SHT31;52267;51.984;20.956;2022-11-14T17:32:11;6.80;85.73
65598;SHT31;52267;51.984;20.956;2022-11-14T17:34:39;6.81;85.80
65598;SHT31;52267;51.984;20.956;2022-11-14T17:37:06;6.81;85.79
65598;SHT31;52267;51.984;20.956;2022-11-14T17:39:33;6.81;85.67
65598;SHT31;52267;51.984;20.956;2022-11-14T17:42:00;6.79;85.75